createdAt,value
2022-08-12T00:00:37.050Z,71.40
2022-08-12T00:03:22.878Z,71.70
2022-08-12T00:06:09.614Z,71.80
2022-08-12T00:08:57.615Z,71.90
2022-08-12T00:11:45.942Z,72.80
2022-08-12T00:14:32.488Z,72.20
2022-08-12T00:17:22.780Z,72.40
2022-08-12T00:20:09.500Z,72.50
2022-08-12T00:22:59.254Z,73.30
2022-08-12T00:26:20.710Z,72.80
2022-08-12T00:29:01.727Z,73.00
2022-08-12T00:31:47.941Z,72.90
2022-08-12T00:34:36.270Z,73.30
2022-08-12T00:37:23.652Z,73.50
2022-08-12T00:40:10.763Z,73.60
2022-08-12T00:42:41.454Z,73.60
2022-08-12T00:45:11.626Z,73.80
2022-08-12T00:47:40.896Z,73.90
2022-08-12T00:50:18.010Z,74.00
2022-08-12T00:52:47.415Z,74.30
2022-08-12T00:55:17.912Z,74.30
2022-08-12T00:57:48.954Z,74.50
2022-08-12T01:00:21.479Z,74.70
2022-08-12T01:02:52.644Z,74.70
2022-08-12T01:05:41.547Z,74.80
2022-08-12T01:08:28.126Z,75.00
2022-08-12T01:11:15.544Z,75.20
2022-08-12T01:13:48.202Z,75.20
2022-08-12T01:16:19.273Z,75.40
2022-08-12T01:18:47.842Z,75.60
2022-08-12T01:21:35.189Z,75.50
2022-08-12T01:24:28.149Z,75.90
2022-08-12T01:27:03.513Z,75.90
2022-08-12T01:29:42.685Z,75.90
2022-08-12T01:32:14.308Z,76.20
2022-08-12T01:34:51.008Z,76.20
2022-08-12T01:37:23.301Z,76.40
2022-08-12T01:40:34.534Z,76.40
2022-08-12T01:42:47.712Z,76.60
2022-08-12T01:45:19.380Z,76.60
2022-08-12T01:47:58.532Z,76.90
2022-08-12T01:50:48.202Z,77.00
2022-08-12T01:53:20.667Z,77.10
2022-08-12T01:55:50.717Z,76.90
2022-08-12T01:58:51.193Z,77.10
2022-08-12T02:01:24.767Z,77.40
2022-08-12T02:04:22.732Z,78.10
2022-08-12T02:07:19.967Z,77.60
2022-08-12T02:10:51.372Z,77.60
2022-08-12T02:13:43.812Z,77.70
2022-08-12T02:16:19.059Z,77.70
2022-08-12T02:18:57.129Z,77.80
2022-08-12T02:21:37.263Z,78.00
2022-08-12T02:24:07.563Z,78.20
2022-08-12T02:26:40.952Z,78.10
2022-08-12T02:29:10.145Z,78.30
2022-08-12T02:31:41.219Z,78.50
2022-08-12T02:34:12.577Z,78.70
2022-08-12T02:36:41.964Z,78.70
2022-08-12T02:39:14.369Z,78.80
2022-08-12T02:41:46.872Z,78.90
2022-08-12T02:44:18.713Z,79.20
2022-08-12T02:46:54.712Z,79.20
2022-08-12T02:49:27.127Z,79.40
2022-08-12T02:51:56.389Z,79.40
2022-08-12T02:54:26.438Z,79.50
2022-08-12T02:56:55.643Z,79.70
2022-08-12T02:59:27.516Z,79.80
2022-08-12T03:02:03.245Z,80.20
2022-08-12T03:04:39.062Z,80.10
2022-08-12T03:07:14.789Z,80.20
2022-08-12T03:10:04.281Z,80.30
2022-08-12T03:12:40.085Z,80.50
2022-08-12T03:15:19.088Z,80.40
2022-08-12T03:18:26.943Z,80.50
2022-08-12T03:20:45.536Z,80.80
2022-08-12T03:23:21.567Z,80.80
2022-08-12T03:26:02.074Z,81.00
2022-08-12T03:28:50.154Z,81.00
2022-08-12T03:31:20.482Z,81.10
2022-08-12T03:34:00.756Z,81.30
2022-08-12T03:36:35.250Z,81.40
2022-08-12T03:39:35.786Z,81.50
2022-08-12T03:42:19.813Z,81.60
2022-08-12T03:45:14.913Z,81.80
2022-08-12T03:48:06.101Z,81.80
2022-08-12T03:50:53.752Z,81.80
2022-08-12T03:53:45.667Z,81.90
2022-08-12T03:56:31.921Z,82.10
2022-08-12T03:59:19.141Z,82.00
2022-08-12T04:01:52.438Z,82.20
2022-08-12T04:04:23.538Z,82.30
2022-08-12T04:06:53.847Z,82.40
2022-08-12T04:09:23.524Z,82.60
2022-08-12T04:12:09.702Z,82.70
2022-08-12T04:14:40.399Z,82.80
2022-08-12T04:17:09.578Z,82.80
2022-08-12T04:19:38.875Z,83.10
2022-08-12T04:22:09.885Z,83.20
2022-08-12T04:24:40.882Z,83.40
2022-08-12T04:27:11.913Z,83.40
2022-08-12T04:30:31.372Z,83.50
2022-08-12T04:32:29.845Z,83.70
2022-08-12T04:34:59.055Z,83.70
2022-08-12T04:37:29.028Z,83.70
2022-08-12T04:40:28.144Z,83.80
2022-08-12T04:42:58.238Z,83.90
2022-08-12T04:45:26.755Z,84.00
2022-08-12T04:47:56.590Z,84.10
2022-08-12T04:50:34.912Z,84.40
2022-08-12T04:53:09.349Z,84.50
2022-08-12T04:55:38.756Z,84.70
2022-08-12T04:58:07.786Z,84.70
2022-08-12T05:00:37.863Z,84.90
2022-08-12T05:03:07.161Z,85.00
2022-08-12T05:05:37.831Z,85.10
2022-08-12T05:08:12.438Z,85.30
2022-08-12T05:10:41.021Z,85.70
2022-08-12T05:13:15.201Z,85.60
2022-08-12T05:16:02.398Z,86.10
2022-08-12T05:18:35.071Z,86.10
2022-08-12T05:21:09.020Z,86.30
2022-08-12T05:23:39.728Z,86.50
2022-08-12T05:26:08.588Z,86.70
2022-08-12T05:28:37.859Z,86.90
2022-08-12T05:31:06.765Z,87.00
2022-08-12T05:33:38.598Z,87.20
2022-08-12T05:36:08.957Z,87.30
2022-08-12T05:38:56.495Z,87.60
2022-08-12T05:41:25.912Z,87.70
2022-08-12T05:43:55.964Z,88.00
2022-08-12T05:46:25.808Z,88.10
2022-08-12T05:48:55.522Z,88.40
2022-08-12T05:51:40.782Z,88.40
2022-08-12T05:54:12.386Z,88.60
2022-08-12T05:56:41.527Z,88.90
2022-08-12T05:59:12.187Z,89.00
2022-08-12T06:02:08.925Z,89.30
2022-08-12T06:04:32.282Z,89.60
2022-08-12T06:07:01.776Z,89.70
2022-08-12T06:09:31.931Z,90.20
2022-08-12T06:12:06.084Z,90.00
2022-08-12T06:14:38.807Z,90.20
2022-08-12T06:17:09.492Z,90.20
2022-08-12T06:20:27.839Z,90.40
2022-08-12T06:22:27.647Z,90.50
2022-08-12T06:24:57.482Z,90.60
2022-08-12T06:27:26.003Z,90.70
2022-08-12T06:30:09.914Z,90.80
2022-08-12T06:32:51.663Z,90.90
2022-08-12T06:35:48.967Z,91.00
2022-08-12T06:38:17.976Z,91.20
2022-08-12T06:41:07.199Z,91.40
2022-08-12T06:44:05.671Z,91.40
2022-08-12T06:46:26.499Z,91.50
2022-08-12T06:48:59.089Z,91.60
2022-08-12T06:51:29.853Z,91.70
2022-08-12T06:53:58.948Z,91.90
2022-08-12T06:56:59.696Z,92.00
2022-08-12T06:59:21.253Z,92.10
2022-08-12T07:01:51.572Z,92.20
2022-08-12T07:04:38.419Z,92.40
2022-08-12T07:07:09.367Z,92.50
2022-08-12T07:10:05.774Z,92.90
2022-08-12T07:12:28.818Z,92.70
2022-08-12T07:14:58.410Z,92.90
2022-08-12T07:17:36.397Z,93.10
2022-08-12T07:20:06.724Z,93.20
2022-08-12T07:22:35.288Z,93.30
2022-08-12T07:25:21.969Z,93.40
2022-08-12T07:27:58.336Z,93.70
2022-08-12T07:30:26.925Z,94.00
2022-08-12T07:32:58.624Z,94.30
2022-08-12T07:35:30.832Z,94.50
2022-08-12T07:38:00.354Z,94.60
2022-08-12T07:40:30.690Z,94.80
2022-08-12T07:43:00.559Z,94.90
2022-08-12T07:45:29.153Z,95.00
2022-08-12T07:47:57.596Z,95.10
2022-08-12T07:50:26.541Z,95.20
2022-08-12T07:52:55.078Z,95.20
2022-08-12T07:55:23.553Z,95.20
2022-08-12T07:57:58.613Z,95.20
2022-08-12T08:00:30.388Z,95.30
2022-08-12T08:02:59.266Z,95.40
2022-08-12T08:05:31.419Z,95.40
2022-08-12T08:08:02.407Z,95.40
2022-08-12T08:10:31.778Z,95.40
2022-08-12T08:13:05.301Z,95.40
2022-08-12T08:18:27.501Z,95.30
2022-08-12T08:20:57.647Z,95.50
2022-08-12T08:23:56.429Z,95.50
2022-08-12T08:26:27.047Z,95.60
2022-08-12T08:28:55.769Z,95.60
2022-08-12T08:31:25.628Z,95.50
2022-08-12T08:34:09.687Z,95.50
2022-08-12T08:36:45.474Z,95.50
2022-08-12T08:39:16.935Z,95.80
2022-08-12T08:42:16.576Z,95.70
2022-08-12T08:44:49.767Z,95.70
2022-08-12T08:47:23.928Z,95.70
2022-08-12T08:49:52.522Z,95.50
2022-08-12T08:52:39.358Z,95.50
2022-08-12T08:55:09.816Z,95.50
2022-08-12T08:57:44.094Z,95.50
2022-08-12T09:00:17.609Z,95.40
2022-08-12T09:02:58.786Z,95.40
2022-08-12T09:05:43.164Z,95.40
2022-08-12T09:08:22.354Z,95.10
2022-08-12T09:14:12.623Z,95.00
2022-08-12T09:16:37.997Z,94.90
2022-08-12T09:22:02.179Z,95.00
2022-08-12T09:24:33.265Z,94.90
2022-08-12T09:27:01.701Z,94.80
2022-08-12T09:30:09.994Z,94.80
2022-08-12T09:32:31.478Z,94.60
2022-08-12T09:35:18.466Z,94.60
2022-08-12T09:37:55.077Z,94.60
2022-08-12T09:40:57.442Z,94.40
2022-08-12T09:43:34.558Z,94.30
2022-08-12T09:46:19.821Z,94.20
2022-08-12T09:48:56.550Z,94.10
2022-08-12T09:51:38.251Z,93.80
2022-08-12T09:54:33.975Z,93.40
2022-08-12T09:58:07.838Z,93.10
2022-08-12T10:00:16.973Z,92.90
2022-08-12T10:03:00.180Z,92.50
2022-08-12T10:06:19.968Z,92.60
2022-08-12T10:08:24.467Z,92.20
2022-08-12T10:11:18.680Z,92.00
2022-08-12T10:13:49.940Z,91.70
2022-08-12T10:16:22.491Z,91.50
2022-08-12T10:18:53.509Z,91.40
2022-08-12T10:21:24.233Z,91.00
2022-08-12T10:24:08.399Z,90.70
2022-08-12T10:26:56.099Z,90.60
2022-08-12T10:30:37.024Z,90.50
2022-08-12T10:32:44.284Z,90.30
2022-08-12T10:35:16.475Z,90.30
2022-08-12T10:38:33.654Z,89.70
2022-08-12T10:40:58.543Z,89.60
2022-08-12T10:43:55.559Z,88.90
2022-08-12T10:46:30.952Z,88.60
2022-08-12T10:49:06.432Z,88.20
2022-08-12T10:52:33.237Z,87.90
2022-08-12T10:54:43.761Z,87.60
2022-08-12T10:58:13.448Z,86.60
2022-08-12T11:00:34.304Z,86.20
2022-08-12T11:04:24.245Z,85.50
2022-08-12T11:07:03.760Z,85.10
2022-08-12T11:08:43.626Z,84.70
2022-08-12T11:11:17.945Z,84.30
2022-08-12T11:14:13.071Z,83.50
2022-08-12T11:17:34.462Z,83.30
2022-08-12T11:19:46.451Z,83.20
2022-08-12T11:22:14.903Z,82.70
2022-08-12T11:24:51.361Z,82.10
2022-08-12T11:27:20.365Z,81.40
2022-08-12T11:30:01.536Z,81.00
2022-08-12T11:32:39.102Z,80.80
2022-08-12T11:35:09.356Z,80.60
2022-08-12T11:37:58.875Z,80.30
2022-08-12T11:40:29.296Z,79.80
2022-08-12T11:43:18.633Z,78.70
2022-08-12T11:45:53.131Z,78.20
2022-08-12T11:48:26.816Z,77.80
2022-08-12T11:50:56.835Z,77.50
2022-08-12T11:53:56.450Z,77.30
2022-08-12T11:56:13.707Z,77.00
2022-08-12T12:02:02.847Z,76.20
2022-08-12T12:04:29.080Z,75.90
2022-08-12T12:07:07.523Z,75.70
2022-08-12T12:09:52.364Z,75.20
2022-08-12T12:12:22.946Z,74.80
2022-08-12T12:14:54.252Z,74.50
2022-08-12T12:17:25.665Z,74.10
2022-08-12T12:19:55.216Z,73.60
2022-08-12T12:22:27.226Z,73.40
2022-08-12T12:25:12.651Z,73.00
2022-08-12T12:28:04.960Z,72.60
2022-08-12T12:30:35.667Z,72.10
2022-08-12T12:33:05.972Z,71.50
2022-08-12T12:36:18.355Z,71.50
2022-08-12T12:38:25.122Z,71.00
2022-08-12T12:40:54.827Z,70.80
2022-08-12T12:43:29.034Z,70.20
2022-08-12T12:46:11.724Z,69.60
2022-08-12T12:48:44.624Z,69.00
2022-08-12T12:51:48.202Z,68.50
2022-08-12T12:54:10.084Z,68.40
2022-08-12T12:56:42.331Z,68.00
2022-08-12T12:59:55.512Z,67.70
2022-08-12T13:02:01.997Z,67.10
2022-08-12T13:04:38.274Z,66.30
2022-08-12T13:07:07.907Z,65.90
2022-08-12T13:09:36.990Z,65.50
2022-08-12T13:12:08.871Z,65.30
2022-08-12T13:14:39.991Z,64.90
2022-08-12T13:17:11.320Z,64.40
2022-08-12T13:19:46.862Z,64.10
2022-08-12T13:22:20.152Z,63.70
2022-08-12T13:24:55.057Z,63.30
2022-08-12T13:27:35.391Z,62.80
2022-08-12T13:30:11.587Z,62.30
2022-08-12T13:32:42.308Z,61.80
2022-08-12T13:35:19.673Z,61.60
2022-08-12T13:37:54.779Z,61.20
2022-08-12T13:40:25.309Z,60.80
2022-08-12T13:42:58.072Z,60.40
2022-08-12T13:45:29.164Z,60.10
2022-08-12T13:48:00.115Z,59.80
2022-08-12T13:50:33.044Z,59.30
2022-08-12T13:53:06.355Z,58.90
2022-08-12T13:55:59.513Z,59.50
2022-08-12T13:58:34.749Z,58.70
2022-08-12T14:01:05.964Z,58.40
2022-08-12T14:03:51.020Z,58.10
2022-08-12T14:06:25.898Z,57.80
2022-08-12T14:08:59.542Z,57.50
2022-08-12T14:11:28.216Z,57.30
2022-08-12T14:14:05.928Z,57.20
2022-08-12T14:16:48.879Z,57.00
2022-08-12T14:19:24.519Z,56.80
2022-08-12T14:22:01.017Z,56.70
2022-08-12T14:24:35.541Z,56.40
2022-08-12T14:27:08.707Z,56.30
2022-08-12T14:30:04.483Z,56.10
2022-08-12T14:32:34.392Z,55.90
2022-08-12T14:35:05.133Z,55.50
2022-08-12T14:37:58.107Z,55.30
2022-08-12T14:40:27.644Z,55.10
2022-08-12T14:42:57.335Z,55.10
2022-08-12T14:45:44.857Z,55.00
2022-08-12T14:48:16.783Z,55.10
2022-08-12T14:51:02.980Z,55.10
2022-08-12T14:55:36.188Z,55.00
2022-08-12T14:59:56.991Z,54.90
2022-08-12T15:02:21.476Z,54.80
2022-08-12T15:04:56.140Z,54.80
2022-08-12T15:07:33.490Z,54.60
2022-08-12T15:10:14.382Z,54.40
2022-08-12T15:12:42.943Z,54.20
2022-08-12T15:15:12.199Z,54.20
2022-08-12T15:17:40.684Z,54.40
2022-08-12T15:20:31.062Z,54.40
2022-08-12T15:22:58.708Z,54.30
2022-08-12T15:25:29.284Z,54.40
2022-08-12T15:28:10.883Z,55.00
2022-08-12T15:30:52.152Z,54.40
2022-08-12T15:33:24.105Z,54.30
2022-08-12T15:35:54.038Z,54.20
2022-08-12T15:38:24.966Z,54.50
2022-08-12T15:40:59.159Z,54.50
2022-08-12T15:43:51.976Z,54.60
2022-08-12T15:46:18.603Z,54.70
2022-08-12T15:48:49.827Z,54.80
2022-08-12T15:51:59.385Z,54.80
2022-08-12T15:54:35.144Z,54.80
2022-08-12T15:57:10.935Z,54.70
2022-08-12T16:00:00.045Z,54.70
2022-08-12T16:02:47.357Z,54.70
2022-08-12T16:06:13.345Z,54.70
2022-08-12T16:08:17.124Z,54.60
2022-08-12T16:10:47.122Z,54.70
2022-08-12T16:13:32.300Z,54.70
2022-08-12T16:16:03.881Z,54.80
2022-08-12T16:18:35.599Z,54.70
2022-08-12T16:21:09.091Z,55.50
2022-08-12T16:23:55.366Z,54.90
2022-08-12T16:26:27.347Z,54.90
2022-08-12T16:29:15.146Z,55.40
2022-08-12T16:31:44.812Z,54.80
2022-08-12T16:34:26.025Z,55.00
2022-08-12T16:37:07.131Z,55.10
2022-08-12T16:40:01.020Z,55.10
2022-08-12T16:42:28.861Z,55.10
2022-08-12T16:45:02.015Z,55.00
2022-08-12T16:47:58.356Z,55.10
2022-08-12T16:50:21.717Z,55.20
2022-08-12T16:53:02.457Z,55.20
2022-08-12T16:55:42.135Z,55.10
2022-08-12T16:58:28.258Z,55.70
2022-08-12T17:01:01.919Z,55.00
2022-08-12T17:03:32.485Z,55.10
2022-08-12T17:06:06.336Z,55.10
2022-08-12T17:08:34.953Z,55.00
2022-08-12T17:11:04.517Z,55.00
2022-08-12T17:13:37.047Z,55.00
2022-08-12T17:16:24.110Z,55.10
2022-08-12T17:18:57.505Z,55.20
2022-08-12T17:21:41.699Z,55.10
2022-08-12T17:24:22.324Z,55.20
2022-08-12T17:26:53.745Z,55.20
2022-08-12T17:29:32.032Z,55.70
2022-08-12T17:32:14.266Z,55.20
2022-08-12T17:35:00.851Z,55.20
2022-08-12T17:37:29.405Z,55.80
2022-08-12T17:40:13.528Z,55.30
2022-08-12T17:42:48.121Z,55.20
2022-08-12T17:45:19.769Z,55.30
2022-08-12T17:48:00.984Z,55.30
2022-08-12T17:50:35.824Z,55.30
2022-08-12T17:53:05.316Z,55.40
2022-08-12T17:55:44.286Z,55.40
2022-08-12T17:58:21.435Z,55.60
2022-08-12T18:00:51.612Z,55.60
2022-08-12T18:04:05.355Z,55.70
2022-08-12T18:06:14.736Z,55.70
2022-08-12T18:08:54.382Z,55.80
2022-08-12T18:12:04.382Z,56.00
2022-08-12T18:14:31.199Z,56.10
2022-08-12T18:17:01.610Z,56.00
2022-08-12T18:19:34.200Z,56.30
2022-08-12T18:22:40.850Z,56.40
2022-08-12T18:26:12.333Z,56.50
2022-08-12T18:28:11.681Z,56.60
2022-08-12T18:30:52.299Z,56.60
2022-08-12T18:33:24.962Z,56.60
2022-08-12T18:35:56.795Z,56.60
2022-08-12T18:38:26.839Z,56.60
2022-08-12T18:41:22.013Z,56.60
2022-08-12T18:44:00.763Z,56.90
2022-08-12T18:47:01.454Z,56.90
2022-08-12T18:49:38.784Z,56.90
2022-08-12T18:52:11.467Z,57.20
2022-08-12T18:54:49.052Z,57.30
2022-08-12T18:58:06.977Z,57.50
2022-08-12T19:00:18.869Z,57.60
2022-08-12T19:02:52.591Z,57.80
2022-08-12T19:05:52.909Z,58.00
2022-08-12T19:08:16.218Z,58.20
2022-08-12T19:10:50.195Z,58.30
2022-08-12T19:13:39.152Z,58.30
2022-08-12T19:16:10.785Z,58.60
2022-08-12T19:18:45.016Z,58.70
2022-08-12T19:21:16.721Z,58.90
2022-08-12T19:24:07.415Z,58.90
2022-08-12T19:26:35.778Z,59.10
2022-08-12T19:29:05.137Z,59.20
2022-08-12T19:31:57.406Z,59.40
2022-08-12T19:37:27.073Z,59.70
2022-08-12T19:40:08.669Z,59.70
2022-08-12T19:43:00.624Z,59.80
2022-08-12T19:45:41.925Z,60.00
2022-08-12T19:48:16.869Z,60.00
2022-08-12T19:50:50.272Z,60.20
2022-08-12T19:53:23.454Z,60.30
2022-08-12T19:55:56.103Z,60.40
2022-08-12T19:58:27.054Z,60.50
2022-08-12T20:00:56.701Z,60.50
2022-08-12T20:03:38.794Z,60.80
2022-08-12T20:06:13.634Z,60.90
2022-08-12T20:08:48.673Z,61.10
2022-08-12T20:12:11.624Z,61.20
2022-08-12T20:14:18.034Z,61.30
2022-08-12T20:16:52.782Z,61.50
2022-08-12T20:19:52.187Z,61.60
2022-08-12T20:22:33.313Z,61.50
2022-08-12T20:25:06.780Z,61.70
2022-08-12T20:28:04.328Z,61.90
2022-08-12T20:30:52.492Z,62.10
2022-08-12T20:33:23.018Z,62.30
2022-08-12T20:36:06.865Z,62.30
2022-08-12T20:38:51.082Z,62.50
2022-08-12T20:41:22.187Z,62.80
2022-08-12T20:43:57.725Z,63.00
2022-08-12T20:46:31.664Z,63.40
2022-08-12T20:49:01.186Z,63.50
2022-08-12T20:51:55.531Z,63.70
2022-08-12T20:54:32.882Z,63.60
2022-08-12T20:57:08.689Z,63.70
2022-08-12T20:59:48.097Z,64.00
2022-08-12T21:02:24.153Z,64.10
2022-08-12T21:05:19.599Z,64.10
2022-08-12T21:07:52.332Z,64.20
2022-08-12T21:10:21.658Z,64.40
2022-08-12T21:12:55.713Z,64.60
2022-08-12T21:15:53.455Z,64.80
2022-08-12T21:18:28.757Z,65.00
2022-08-12T21:20:59.017Z,65.10
2022-08-12T21:23:30.906Z,65.30
2022-08-12T21:26:12.405Z,65.40
2022-08-12T21:28:58.046Z,65.40
2022-08-12T21:32:47.060Z,65.70
2022-08-12T21:34:29.159Z,65.90
2022-08-12T21:37:13.091Z,65.90
2022-08-12T21:39:52.202Z,66.10
2022-08-12T21:42:27.842Z,66.20
2022-08-12T21:45:47.773Z,66.40
2022-08-12T21:47:53.067Z,66.60
2022-08-12T21:50:22.115Z,66.70
2022-08-12T21:52:57.825Z,66.90
2022-08-12T21:55:27.308Z,67.10
2022-08-12T21:58:02.513Z,67.20
2022-08-12T22:00:35.156Z,67.40
2022-08-12T22:04:03.717Z,67.60
2022-08-12T22:06:31.752Z,67.80
2022-08-12T22:09:16.454Z,67.60
2022-08-12T22:11:49.354Z,67.80
2022-08-12T22:14:25.292Z,67.90
2022-08-12T22:16:56.348Z,67.90
2022-08-12T22:19:26.834Z,68.10
2022-08-12T22:21:58.420Z,68.40
2022-08-12T22:24:29.947Z,68.40
2022-08-12T22:27:07.931Z,68.70
2022-08-12T22:30:07.158Z,68.80
2022-08-12T22:32:38.635Z,69.00
2022-08-12T22:35:29.161Z,69.00
2022-08-12T22:38:10.772Z,69.30
2022-08-12T22:40:40.460Z,69.40
2022-08-12T22:43:32.137Z,69.40
2022-08-12T22:46:19.143Z,69.50
2022-08-12T22:48:50.597Z,69.60
2022-08-12T22:51:24.084Z,69.80
2022-08-12T22:53:54.870Z,74.90
2022-08-12T22:56:30.982Z,71.60
2022-08-12T22:59:02.660Z,75.50
2022-08-12T23:02:01.381Z,72.00
2022-08-12T23:04:27.716Z,71.70
2022-08-12T23:07:05.370Z,71.50
2022-08-12T23:09:48.326Z,71.70
2022-08-12T23:12:41.141Z,71.70
2022-08-12T23:15:15.473Z,71.60
2022-08-12T23:17:46.020Z,71.70
2022-08-12T23:20:18.265Z,71.60
2022-08-12T23:23:03.074Z,71.60
2022-08-12T23:25:54.658Z,71.80
2022-08-12T23:28:42.456Z,71.80
2022-08-12T23:31:11.128Z,71.80
2022-08-12T23:34:00.755Z,71.80
2022-08-12T23:36:31.608Z,72.00
2022-08-12T23:40:15.027Z,72.00
2022-08-12T23:42:16.560Z,72.20
2022-08-12T23:44:48.451Z,72.20
2022-08-12T23:47:17.630Z,72.20
2022-08-12T23:49:57.329Z,72.30
2022-08-12T23:52:33.888Z,72.70
2022-08-12T23:55:23.142Z,72.50
2022-08-12T23:58:18.275Z,72.70
